Time;durP1;ratioP1;P1;durP2;ratioP2;P2;SDS_P1;SDS_P2;PMS_P1;PMS_P2;Temp;Humidity;BMP_temperature;BMP_pressure;BME280_temperature;BME280_humidity;BME280_pressure;Samples;Min_cycle;Max_cycle;Signal;HPM_P1;HPM_P2
2022/11/06 06:01:20;;;;;;;27.00;14.32;;;1.70;99.90;;;;;;6048934;23;20021;31
2022/11/06 06:03:48;;;;;;;24.95;13.43;;;1.70;99.90;;;;;;4983256;28;20132;-76
2022/11/06 06:06:14;;;;;;;22.60;13.73;;;1.70;99.90;;;;;;4985538;28;20061;-76
2022/11/06 06:08:42;;;;;;;28.77;13.60;;;1.70;99.90;;;;;;4985330;28;20304;-76
2022/11/06 06:11:08;;;;;;;23.50;13.05;;;1.60;99.90;;;;;;4984687;28;20354;-76
2022/11/06 06:13:43;;;;;;;20.75;12.18;;;1.60;99.90;;;;;;4985515;28;20031;-76
2022/11/06 06:16:11;;;;;;;22.30;12.30;;;1.60;99.90;;;;;;4985103;28;20043;-76
2022/11/06 06:18:51;;;;;;;22.42;12.70;;;1.50;99.90;;;;;;4967260;28;20026;-76
2022/11/06 06:24:16;;;;;;;21.00;12.52;;;1.50;99.90;;;;;;4981276;28;20340;-77
2022/11/06 06:26:42;;;;;;;21.17;12.02;;;1.50;99.90;;;;;;4985217;28;20102;-77
2022/11/06 06:29:11;;;;;;;22.77;12.65;;;1.50;99.90;;;;;;4984744;28;20094;-77
2022/11/06 06:31:36;;;;;;;22.63;12.98;;;1.60;99.90;;;;;;4984938;28;20031;-77
2022/11/06 06:34:05;;;;;;;22.67;12.43;;;1.60;99.90;;;;;;4984545;28;20023;-77
2022/11/06 06:36:34;;;;;;;23.17;12.10;;;1.60;99.90;;;;;;4985129;28;20030;-77
2022/11/06 06:39:09;;;;;;;20.70;12.57;;;1.70;99.90;;;;;;4984353;28;20023;-74
2022/11/06 06:41:42;;;;;;;23.25;12.50;;;1.70;99.90;;;;;;4952127;28;20034;-77
2022/11/06 06:44:08;;;;;;;21.83;12.65;;;1.80;99.90;;;;;;4984337;28;20039;-74
2022/11/06 06:46:34;;;;;;;25.33;12.02;;;1.90;99.90;;;;;;4984783;28;20030;-75
2022/11/06 06:48:59;;;;;;;22.40;12.52;;;1.90;99.90;;;;;;4984256;28;20339;-75
2022/11/06 06:51:25;;;;;;;23.83;12.52;;;1.90;99.90;;;;;;4967584;28;20039;-77
2022/11/06 06:54:14;;;;;;;24.67;13.65;;;2.10;99.90;;;;;;4966965;28;20034;-75
2022/11/06 06:56:43;;;;;;;24.25;13.50;;;2.10;99.90;;;;;;4967450;28;20045;-83
2022/11/06 06:59:08;;;;;;;23.00;14.20;;;2.20;99.90;;;;;;4967016;28;20026;-76
2022/11/06 07:01:34;;;;;;;24.70;13.10;;;2.30;99.90;;;;;;4984204;28;20145;-74
2022/11/06 07:04:00;;;;;;;22.63;13.15;;;2.40;99.90;;;;;;4982750;28;20102;-74
2022/11/06 07:06:25;;;;;;;23.73;13.77;;;2.40;99.90;;;;;;4983819;28;20131;-77
2022/11/06 07:08:55;;;;;;;24.17;13.43;;;2.40;99.90;;;;;;4984555;28;20039;-76
2022/11/06 07:11:24;;;;;;;22.10;12.95;;;2.50;99.90;;;;;;4984004;28;20030;-76
2022/11/06 07:13:49;;;;;;;22.10;13.10;;;2.60;99.90;;;;;;4984447;28;20086;-77
2022/11/06 07:16:15;;;;;;;25.20;13.60;;;2.70;99.90;;;;;;4983819;28;20062;-77
2022/11/06 07:18:41;;;;;;;23.63;13.52;;;2.70;99.90;;;;;;4983243;28;20085;-75
2022/11/06 07:21:09;;;;;;;22.17;12.52;;;2.80;99.90;;;;;;4983313;28;20248;-76
2022/11/06 07:23:36;;;;;;;23.00;12.75;;;2.80;99.90;;;;;;4983147;28;20033;-75
2022/11/06 07:26:02;;;;;;;20.55;12.02;;;2.80;99.90;;;;;;4983693;28;20031;-76
2022/11/06 07:28:28;;;;;;;18.55;11.63;;;2.80;99.90;;;;;;4983994;28;20030;-76
2022/11/06 07:30:59;;;;;;;34.60;20.38;;;2.80;99.90;;;;;;4965276;28;20061;-75
2022/11/06 07:33:25;;;;;;;20.98;13.80;;;2.80;99.90;;;;;;4994313;28;20042;-76
2022/11/06 07:35:51;;;;;;;17.15;10.88;;;2.80;99.90;;;;;;4984947;28;20321;-76
2022/11/06 07:38:17;;;;;;;15.90;10.23;;;2.80;99.90;;;;;;4982474;28;20029;-75
2022/11/06 07:40:43;;;;;;;15.40;10.30;;;2.80;99.90;;;;;;4983227;28;20094;-75
2022/11/06 07:43:10;;;;;;;26.75;16.60;;;2.80;99.90;;;;;;4983579;28;20031;-74
2022/11/06 07:45:38;;;;;;;18.75;12.18;;;2.80;99.90;;;;;;4983164;28;20319;-75
2022/11/06 07:48:05;;;;;;;15.70;10.73;;;2.90;99.90;;;;;;4983075;28;20042;-74
2022/11/06 07:50:31;;;;;;;12.38;8.10;;;2.80;99.90;;;;;;4983861;28;20034;-73
2022/11/06 07:53:02;;;;;;;12.70;8.40;;;2.90;99.90;;;;;;4983198;28;20099;-74
2022/11/06 07:55:30;;;;;;;12.95;8.40;;;2.90;99.90;;;;;;4985727;28;20466;-75
2022/11/06 07:58:20;;;;;;;12.43;8.00;;;3.10;99.90;;;;;;4979605;28;20027;-76
2022/11/06 08:01:16;;;;;;;13.27;7.40;;;3.10;99.90;;;;;;5002643;28;20040;-74
2022/11/06 08:03:42;;;;;;;11.82;7.68;;;3.30;99.90;;;;;;4987420;28;20328;-73
2022/11/06 08:06:11;;;;;;;13.20;7.53;;;3.40;99.90;;;;;;4965936;28;20089;-74
2022/11/06 08:08:37;;;;;;;11.85;7.32;;;3.50;99.90;;;;;;4983387;28;20065;-73
2022/11/06 08:11:08;;;;;;;12.52;7.40;;;3.50;99.90;;;;;;4982612;28;20106;-74
2022/11/06 08:13:34;;;;;;;10.82;7.28;;;3.70;99.90;;;;;;4966355;28;20022;-72
2022/11/06 08:16:05;;;;;;;9.98;7.10;;;3.80;99.90;;;;;;4982777;28;20026;-75
2022/11/06 08:18:32;;;;;;;10.25;6.63;;;3.80;99.90;;;;;;4966534;28;20027;-74
2022/11/06 08:21:07;;;;;;;10.43;7.43;;;3.80;99.90;;;;;;4983263;28;20042;-76
2022/11/06 08:23:37;;;;;;;11.07;6.80;;;3.90;99.90;;;;;;4985016;28;20029;-77
2022/11/06 08:26:26;;;;;;;10.90;6.88;;;4.00;99.90;;;;;;4965433;28;20026;-76
2022/11/06 08:29:01;;;;;;;12.57;6.78;;;4.10;99.90;;;;;;4983027;28;20035;-75
2022/11/06 08:31:39;;;;;;;12.20;7.68;;;4.20;99.90;;;;;;4983242;28;20053;-75
2022/11/06 08:34:19;;;;;;;11.95;7.55;;;4.40;99.90;;;;;;4948553;28;20027;-76
2022/11/06 08:36:49;;;;;;;11.15;7.53;;;4.50;99.90;;;;;;4982928;28;20090;-74
2022/11/06 08:39:15;;;;;;;12.55;7.28;;;4.60;99.90;;;;;;4981579;28;20097;-73
2022/11/06 08:41:41;;;;;;;13.02;7.28;;;4.70;99.90;;;;;;4987967;28;20236;-73
2022/11/06 08:44:10;;;;;;;11.73;6.97;;;4.80;99.90;;;;;;4987620;28;20328;-74
2022/11/06 08:46:48;;;;;;;11.88;7.22;;;5.00;99.90;;;;;;4989213;28;20078;-73
2022/11/06 08:49:27;;;;;;;13.13;7.75;;;5.10;99.90;;;;;;4987820;28;20186;-74
2022/11/06 08:51:53;;;;;;;12.13;7.57;;;5.20;99.90;;;;;;4989414;28;20030;-72
2022/11/06 08:54:19;;;;;;;14.18;7.95;;;5.30;99.90;;;;;;4988772;28;20623;-73
2022/11/06 08:56:45;;;;;;;12.23;7.38;;;5.60;99.90;;;;;;4989307;28;20033;-74
2022/11/06 08:59:11;;;;;;;12.18;7.38;;;5.70;99.90;;;;;;4988845;28;20035;-72
2022/11/06 09:01:36;;;;;;;12.32;7.13;;;5.90;99.90;;;;;;4989884;28;20324;-73
2022/11/06 09:04:06;;;;;;;10.93;6.80;;;6.00;99.90;;;;;;4989392;28;20093;-71
2022/11/06 09:06:32;;;;;;;10.48;7.22;;;6.00;99.90;;;;;;4989712;28;20031;-73
2022/11/06 09:09:01;;;;;;;10.90;7.00;;;6.00;99.90;;;;;;4989219;28;20081;-73
2022/11/06 09:11:27;;;;;;;13.32;6.70;;;6.20;99.90;;;;;;4988785;28;20081;-73
2022/11/06 09:13:53;;;;;;;11.70;7.10;;;6.20;99.90;;;;;;4989248;28;20026;-74
2022/11/06 09:16:19;;;;;;;10.85;6.82;;;6.30;99.90;;;;;;4988473;28;20265;-75
2022/11/06 09:18:44;;;;;;;10.25;7.50;;;6.50;99.90;;;;;;4988218;28;20038;-72
2022/11/06 09:21:10;;;;;;;12.23;7.20;;;6.50;99.90;;;;;;4988572;28;20340;-71
2022/11/06 09:23:36;;;;;;;11.18;7.22;;;6.60;99.90;;;;;;4972034;28;20034;-72
2022/11/06 09:26:04;;;;;;;12.23;7.10;;;6.70;99.90;;;;;;4988577;28;20023;-72
2022/11/06 09:28:30;;;;;;;10.80;7.00;;;6.70;99.90;;;;;;4989903;28;20107;-71
2022/11/06 09:30:56;;;;;;;12.80;7.45;;;6.80;99.90;;;;;;4989129;28;20045;-73
2022/11/06 09:33:22;;;;;;;11.90;7.57;;;6.90;99.90;;;;;;4988285;28;20351;-74
2022/11/06 09:35:47;;;;;;;10.57;6.18;;;6.90;99.90;;;;;;4988668;28;20027;-77
2022/11/06 09:38:16;;;;;;;10.48;6.60;;;7.00;99.90;;;;;;4988490;28;20046;-75
2022/11/06 09:40:46;;;;;;;;;;;7.00;99.90;;;;;;4988197;28;20034;-75
2022/11/06 09:43:36;;;;;;;10.68;6.85;;;7.30;99.90;;;;;;4988274;28;19906;-74
2022/11/06 09:46:23;;;;;;;10.02;6.95;;;7.50;99.90;;;;;;4988714;28;20034;-75
2022/11/06 09:49:30;;;;;;;9.95;6.60;;;7.60;99.90;;;;;;4972041;28;20046;-71
2022/11/06 09:52:07;;;;;;;9.25;6.25;;;7.80;99.90;;;;;;4986812;28;20038;-71
2022/11/06 09:54:48;;;;;;;11.80;7.35;;;7.90;99.90;;;;;;4985923;28;20030;-71
2022/11/06 09:57:44;;;;;;;9.40;6.43;;;8.00;99.90;;;;;;4985457;28;20208;-73
2022/11/06 10:00:17;;;;;;;10.30;6.60;;;8.20;99.90;;;;;;4985453;28;20165;-73
2022/11/06 10:03:06;;;;;;;8.70;6.55;;;8.20;99.90;;;;;;4985553;28;20050;-73
2022/11/06 10:05:35;;;;;;;10.55;6.88;;;8.40;99.90;;;;;;4985541;28;20039;-72
2022/11/06 10:08:19;;;;;;;12.27;6.50;;;8.60;99.90;;;;;;4985457;28;20099;-73
2022/11/06 10:11:13;;;;;;;9.75;6.63;;;8.70;99.90;;;;;;4984108;28;20333;-72
2022/11/06 10:13:57;;;;;;;8.25;5.93;;;8.90;99.90;;;;;;4985425;28;20019;-74
2022/11/06 10:16:37;;;;;;;11.55;6.43;;;9.10;99.90;;;;;;4984884;28;20042;-76
2022/11/06 10:19:27;;;;;;;8.70;6.30;;;9.40;99.90;;;;;;4985343;28;20304;-77
2022/11/06 10:21:54;;;;;;;10.18;6.78;;;9.50;99.90;;;;;;4985394;28;20090;-76
2022/11/06 10:24:38;;;;;;;9.55;7.10;;;9.70;99.90;;;;;;4984966;28;20039;-74
2022/11/06 10:27:32;;;;;;;9.05;6.35;;;9.90;99.90;;;;;;4973771;28;20261;-75
2022/11/06 10:30:07;;;;;;;10.73;6.70;;;10.10;99.90;;;;;;4983621;28;20340;-75
2022/11/06 10:33:23;;;;;;;10.88;6.72;;;10.30;99.90;;;;;;4983013;28;20041;-76
2022/11/06 10:35:52;;;;;;;9.70;6.50;;;10.60;99.90;;;;;;4896600;29;20110;-71
2022/11/06 10:38:27;;;;;;;8.25;5.57;;;11.00;99.90;;;;;;4904954;29;20060;-74
2022/11/06 10:40:54;;;;;;;10.23;5.40;;;11.20;99.90;;;;;;4948439;28;20114;-73
2022/11/06 10:43:45;;;;;;;7.75;4.88;;;11.50;99.90;;;;;;4983056;28;20030;-71
2022/11/06 10:46:22;;;;;;;8.77;5.40;;;12.00;99.90;;;;;;4982321;28;20212;-72
2022/11/06 10:49:26;;;;;;;7.18;4.80;;;12.30;99.90;;;;;;4986372;28;20197;-73
2022/11/06 10:52:24;;;;;;;7.80;4.80;;;12.60;99.90;;;;;;4980173;28;20077;-72
2022/11/06 10:55:28;;;;;;;8.57;4.90;;;12.80;99.90;;;;;;4984337;28;20106;-74
2022/11/06 10:58:05;;;;;;;8.10;5.20;;;12.90;99.90;;;;;;4984732;28;20027;-72
2022/11/06 11:00:35;;;;;;;7.17;4.70;;;12.40;99.90;;;;;;4984855;28;20087;-72
2022/11/06 11:03:15;;;;;;;7.47;4.95;;;12.40;99.90;;;;;;4984138;28;20081;-72
2022/11/06 11:05:43;;;;;;;7.88;5.47;;;12.30;99.90;;;;;;4984490;28;20220;-73
2022/11/06 11:08:27;;;;;;;7.87;5.50;;;12.20;99.90;;;;;;4967147;28;20038;-73
2022/11/06 11:11:01;;;;;;;8.80;5.75;;;11.90;99.90;;;;;;4984715;28;20043;-72
2022/11/06 11:13:27;;;;;;;6.57;5.15;;;11.80;99.90;;;;;;4966972;28;20260;-72
2022/11/06 11:15:53;;;;;;;7.78;5.47;;;11.70;99.90;;;;;;4984549;28;20056;-75
2022/11/06 11:18:30;;;;;;;8.13;5.30;;;11.90;99.90;;;;;;4983786;28;20085;-74
2022/11/06 11:21:20;;;;;;;8.13;5.30;;;12.10;99.90;;;;;;4984455;28;20327;-71
2022/11/06 11:24:08;;;;;;;8.38;5.20;;;12.50;99.90;;;;;;4984213;28;20026;-74
2022/11/06 11:26:50;;;;;;;7.95;5.05;;;12.60;99.90;;;;;;4984075;28;20033;-76
2022/11/06 11:29:29;;;;;;;6.70;4.63;;;12.90;99.90;;;;;;4983532;28;20181;-76
2022/11/06 11:32:01;;;;;;;6.38;4.53;;;13.50;99.90;;;;;;4984009;28;20045;-75
2022/11/06 11:34:30;;;;;;;5.90;4.25;;;14.30;99.90;;;;;;4983516;28;20030;-73
2022/11/06 11:37:01;;;;;;;6.22;4.32;;;15.00;98.20;;;;;;4983997;28;20050;-74
2022/11/06 11:39:51;;;;;;;5.38;4.10;;;15.60;97.00;;;;;;4983946;28;20035;-75
2022/11/06 11:42:32;;;;;;;4.75;3.60;;;16.70;95.10;;;;;;4998693;28;20078;-71
2022/11/06 11:45:07;;;;;;;4.97;3.60;;;17.20;94.10;;;;;;4983616;28;20035;-71
2022/11/06 11:47:40;;;;;;;4.78;3.45;;;17.50;92.70;;;;;;4983627;28;20057;-72
2022/11/06 11:50:32;;;;;;;4.00;3.03;;;17.90;92.40;;;;;;4984243;28;20197;-72
2022/11/06 11:53:19;;;;;;;4.53;3.13;;;17.90;90.80;;;;;;4982278;28;20064;-72
2022/11/06 11:55:53;;;;;;;5.03;2.97;;;18.00;90.90;;;;;;4983653;28;20030;-74
2022/11/06 11:58:27;;;;;;;5.82;3.42;;;18.40;90.60;;;;;;4983283;28;20332;-73
2022/11/06 12:01:03;;;;;;;3.92;2.83;;;18.70;89.60;;;;;;4983225;28;20289;-72
2022/11/06 12:03:39;;;;;;;4.75;3.10;;;19.10;87.80;;;;;;4982978;28;20057;-72
2022/11/06 12:06:11;;;;;;;4.95;3.65;;;19.80;86.60;;;;;;4983844;28;20070;-72
2022/11/06 12:11:44;;;;;;;;;;;19.80;85.50;;;;;;4983610;28;20027;-75
2022/11/06 12:14:37;;;;;;;4.00;2.97;;;20.40;83.60;;;;;;4983064;28;19917;-72
2022/11/06 12:17:18;;;;;;;3.95;3.08;;;20.40;82.70;;;;;;4983167;28;20050;-72
2022/11/06 12:19:53;;;;;;;5.13;3.33;;;20.20;83.00;;;;;;4990747;28;20026;-72
2022/11/06 12:22:30;;;;;;;4.10;3.30;;;20.30;83.40;;;;;;4989964;28;20045;-74
2022/11/06 12:24:59;;;;;;;4.80;2.92;;;20.50;82.00;;;;;;5000095;28;20034;-72
2022/11/06 12:27:43;;;;;;;4.30;2.97;;;20.30;81.60;;;;;;4990957;28;20030;-73
2022/11/06 12:30:13;;;;;;;3.90;2.85;;;20.90;80.80;;;;;;4990199;28;20035;-72
2022/11/06 12:32:56;;;;;;;3.80;2.80;;;20.90;80.00;;;;;;4968226;28;20039;-73
2022/11/06 12:35:44;;;;;;;4.03;2.90;;;20.60;79.90;;;;;;4985903;28;20213;-73
2022/11/06 12:38:37;;;;;;;3.95;2.60;;;20.10;81.10;;;;;;4999352;28;20268;-72
2022/11/06 12:41:05;;;;;;;4.88;2.83;;;20.50;81.20;;;;;;4993144;28;20047;-74
2022/11/06 12:43:39;;;;;;;3.88;2.95;;;20.00;80.60;;;;;;4995688;28;20292;-72
2022/11/06 12:46:10;;;;;;;3.53;2.60;;;19.60;81.90;;;;;;4989258;28;20033;-72
2022/11/06 12:49:17;;;;;;;3.75;2.92;;;19.50;82.30;;;;;;4964818;28;20092;-72
2022/11/06 12:52:07;;;;;;;5.20;2.88;;;18.90;82.20;;;;;;4923672;29;20043;-73
2022/11/06 12:54:55;;;;;;;4.18;2.90;;;18.00;84.60;;;;;;4885868;29;20064;-73
2022/11/06 12:57:35;;;;;;;3.88;2.70;;;16.80;87.50;;;;;;4888374;29;20127;-73
2022/11/06 13:00:12;;;;;;;3.63;2.63;;;16.20;89.60;;;;;;4904731;29;20049;-73
2022/11/06 13:03:08;;;;;;;4.32;2.97;;;15.80;90.70;;;;;;4904207;29;20052;-73
2022/11/06 13:05:36;;;;;;;4.25;2.97;;;15.50;91.10;;;;;;4904051;29;20193;-73
2022/11/06 13:08:18;;;;;;;4.47;2.72;;;15.10;91.70;;;;;;4889102;29;20335;-72
2022/11/06 13:10:53;;;;;;;3.40;2.25;;;14.90;92.00;;;;;;4904383;29;20044;-71
2022/11/06 13:13:36;;;;;;;3.55;2.25;;;15.00;91.60;;;;;;4904167;29;20072;-73
2022/11/06 13:16:38;;;;;;;3.67;2.55;;;15.30;91.40;;;;;;4888810;29;20338;-72
2022/11/06 13:19:18;;;;;;;3.10;1.88;;;15.70;91.00;;;;;;4904598;29;20129;-71
2022/11/06 13:21:50;;;;;;;3.92;2.22;;;15.70;90.70;;;;;;4904231;29;20048;-70
2022/11/06 13:24:22;;;;;;;3.53;2.30;;;15.50;91.40;;;;;;4903699;29;20060;-72
2022/11/06 13:27:29;;;;;;;3.47;2.05;;;15.20;91.60;;;;;;4922931;29;20186;-72
2022/11/06 13:30:02;;;;;;;3.83;2.50;;;15.00;91.90;;;;;;4904736;29;20040;-74
2022/11/06 13:32:34;;;;;;;3.20;2.13;;;15.10;91.90;;;;;;4966327;29;20038;-72
2022/11/06 13:35:01;;;;;;;3.33;2.25;;;14.80;92.30;;;;;;4966732;29;20035;-72
2022/11/06 13:37:40;;;;;;;4.30;1.98;;;14.40;92.50;;;;;;4966635;29;20255;-71
2022/11/06 13:40:34;;;;;;;3.08;1.80;;;14.10;92.80;;;;;;4966760;29;20034;-73
2022/11/06 13:43:11;;;;;;;3.15;2.10;;;14.00;92.70;;;;;;4965966;29;20035;-73
2022/11/06 13:45:49;;;;;;;3.33;1.90;;;13.70;93.40;;;;;;4966159;29;20035;-72
2022/11/06 13:48:41;;;;;;;3.50;2.20;;;13.70;93.70;;;;;;4949357;29;20041;-73
2022/11/06 13:51:32;;;;;;;4.00;2.17;;;13.60;93.70;;;;;;4938409;28;20070;-74
2022/11/06 13:54:35;;;;;;;3.58;2.30;;;13.50;94.00;;;;;;4984521;28;20026;-74
2022/11/06 13:57:31;;;;;;;4.15;2.10;;;13.40;94.60;;;;;;4965563;28;20058;-74
2022/11/06 14:00:01;;;;;;;3.20;1.88;;;13.30;94.50;;;;;;4984722;28;20066;-75
2022/11/06 14:03:07;;;;;;;4.15;2.40;;;13.30;94.60;;;;;;4984260;28;20351;-75
2022/11/06 14:05:33;;;;;;;4.05;2.78;;;13.20;94.50;;;;;;4982933;28;20053;-75
2022/11/06 14:08:06;;;;;;;4.95;3.00;;;13.00;95.20;;;;;;4983501;28;20312;-75
2022/11/06 14:10:35;;;;;;;4.80;2.53;;;13.10;95.10;;;;;;4984368;28;20029;-76
2022/11/06 14:13:03;;;;;;;4.88;3.10;;;13.00;95.30;;;;;;4967427;28;20077;-75
2022/11/06 14:15:40;;;;;;;4.35;2.90;;;12.90;95.50;;;;;;4966906;28;20314;-75
2022/11/06 14:18:19;;;;;;;3.80;2.50;;;12.90;96.10;;;;;;4984123;28;20076;-75
2022/11/06 14:20:45;;;;;;;4.00;2.60;;;12.90;95.90;;;;;;4984599;28;20029;-74
2022/11/06 14:23:29;;;;;;;3.67;2.05;;;12.70;96.20;;;;;;4982880;28;20027;-76
2022/11/06 14:26:11;;;;;;;3.95;2.45;;;12.60;96.30;;;;;;4984182;28;20027;-75
2022/11/06 14:28:39;;;;;;;3.67;2.28;;;12.60;96.00;;;;;;4983542;28;20050;-75
2022/11/06 14:31:06;;;;;;;4.03;2.25;;;12.50;96.00;;;;;;4984066;28;20023;-75
2022/11/06 14:33:41;;;;;;;4.03;2.50;;;12.40;96.00;;;;;;4983769;28;20134;-76
2022/11/06 14:36:22;;;;;;;4.65;2.20;;;12.30;96.60;;;;;;4983960;28;20246;-75
2022/11/06 14:38:48;;;;;;;7.07;3.92;;;12.20;96.80;;;;;;4983411;28;20038;-77
2022/11/06 14:41:33;;;;;;;5.35;3.45;;;12.20;97.20;;;;;;4984191;28;20035;-74
2022/11/06 14:44:05;;;;;;;4.32;2.60;;;12.20;97.50;;;;;;4983957;28;20331;-74
2022/11/06 14:46:31;;;;;;;4.10;2.83;;;12.00;97.30;;;;;;4982832;28;20030;-78
2022/11/06 14:49:15;;;;;;;5.22;3.65;;;11.90;97.40;;;;;;4983616;28;20102;-77
2022/11/06 14:51:40;;;;;;;7.43;5.50;;;11.80;97.40;;;;;;4982751;28;20046;-76
2022/11/06 14:54:22;;;;;;;4.13;2.80;;;11.70;97.50;;;;;;4983870;28;20045;-75
2022/11/06 14:56:53;;;;;;;5.63;2.97;;;11.60;97.70;;;;;;4983543;28;20097;-76
2022/11/06 14:59:32;;;;;;;6.82;4.68;;;11.50;98.20;;;;;;4966199;28;20319;-75
2022/11/06 15:02:22;;;;;;;9.02;5.88;;;11.40;98.00;;;;;;4983177;28;20089;-76
2022/11/06 15:05:14;;;;;;;6.88;4.35;;;11.30;98.20;;;;;;4983596;28;20186;-75
2022/11/06 15:07:40;;;;;;;4.30;2.67;;;11.20;98.50;;;;;;4982757;28;20041;-73
2022/11/06 15:10:40;;;;;;;8.68;5.95;;;11.10;98.50;;;;;;4983277;28;20059;-74
2022/11/06 15:13:15;;;;;;;6.25;4.45;;;11.10;99.00;;;;;;4983352;28;20041;-72
2022/11/06 15:15:42;;;;;;;6.95;3.70;;;11.10;99.10;;;;;;4982896;28;20237;-74
2022/11/06 15:18:21;;;;;;;5.82;3.22;;;11.00;99.10;;;;;;4982900;28;20057;-77
2022/11/06 15:20:58;;;;;;;7.50;5.50;;;10.90;98.90;;;;;;4981809;28;20367;-74
2022/11/06 15:23:39;;;;;;;5.32;3.65;;;10.90;99.20;;;;;;4982459;28;20039;-74
2022/11/06 15:26:25;;;;;;;7.10;3.70;;;10.80;99.70;;;;;;4982839;28;20134;-76
2022/11/06 15:29:03;;;;;;;5.88;3.53;;;10.60;99.90;;;;;;4983130;28;20173;-73
2022/11/06 15:31:30;;;;;;;5.77;3.40;;;10.50;99.90;;;;;;4982404;28;20045;-75
2022/11/06 15:34:01;;;;;;;4.82;3.03;;;10.30;99.90;;;;;;4963078;28;20454;-76
2022/11/06 15:36:31;;;;;;;4.15;3.00;;;10.20;99.90;;;;;;4965387;28;20057;-73
2022/11/06 15:38:57;;;;;;;5.03;3.40;;;10.10;99.90;;;;;;4982544;28;20150;-75
2022/11/06 15:41:25;;;;;;;5.78;3.95;;;10.00;99.90;;;;;;4983565;28;20285;-74
2022/11/06 15:43:56;;;;;;;5.20;3.78;;;9.90;99.90;;;;;;4983982;28;20139;-74
2022/11/06 15:46:27;;;;;;;4.55;3.15;;;9.80;99.90;;;;;;4983759;28;20054;-73
2022/11/06 15:49:15;;;;;;;7.05;4.03;;;9.70;99.90;;;;;;4983716;28;20043;-73
2022/11/06 15:51:48;;;;;;;;;;;9.60;99.90;;;;;;4982524;28;20106;-73
2022/11/06 15:54:30;;;;;;;5.65;3.83;;;9.60;99.90;;;;;;4983957;28;20183;-72
2022/11/06 15:56:56;;;;;;;4.80;3.28;;;9.50;99.90;;;;;;4983924;28;20102;-72
2022/11/06 15:59:21;;;;;;;5.65;3.53;;;9.50;99.90;;;;;;4983764;28;20066;-73
2022/11/06 16:01:48;;;;;;;5.38;3.45;;;9.40;99.90;;;;;;4982918;28;20050;-71
2022/11/06 16:04:19;;;;;;;5.15;3.38;;;9.30;99.90;;;;;;4983418;28;20104;-73
2022/11/06 16:06:46;;;;;;;5.15;3.53;;;9.30;99.90;;;;;;4983014;28;20098;-72
2022/11/06 16:09:18;;;;;;;6.47;4.90;;;9.20;99.90;;;;;;4983453;28;20090;-72
2022/11/06 16:11:47;;;;;;;9.60;6.40;;;9.10;99.90;;;;;;4981729;28;20105;-72
2022/11/06 16:14:14;;;;;;;13.05;9.48;;;9.10;99.90;;;;;;4966252;28;20189;-73
2022/11/06 16:16:41;;;;;;;9.35;6.55;;;9.10;99.90;;;;;;4983154;28;20200;-73
2022/11/06 16:19:30;;;;;;;10.20;6.78;;;9.10;99.90;;;;;;4983081;28;20329;-71
2022/11/06 16:21:59;;;;;;;6.47;4.72;;;9.10;99.90;;;;;;4983426;28;20043;-71
2022/11/06 16:24:30;;;;;;;8.02;4.85;;;9.10;99.90;;;;;;4983584;28;20027;-73
2022/11/06 16:26:56;;;;;;;6.80;4.55;;;9.00;99.90;;;;;;4983281;28;20031;-71
2022/11/06 16:29:29;;;;;;;7.15;4.53;;;9.00;99.90;;;;;;4976551;28;20062;-71
2022/11/06 16:32:01;;;;;;;6.95;4.65;;;9.00;99.90;;;;;;4974197;28;20094;-71
2022/11/06 16:34:29;;;;;;;10.90;6.38;;;9.00;99.90;;;;;;4982166;28;20035;-70
2022/11/06 16:37:04;;;;;;;32.05;21.17;;;9.00;99.90;;;;;;4982065;28;20034;-72
2022/11/06 16:39:31;;;;;;;20.40;12.02;;;9.00;99.90;;;;;;4964938;28;20070;-75
2022/11/06 16:42:18;;;;;;;34.33;20.80;;;9.00;99.90;;;;;;4981190;28;20026;-71
2022/11/06 16:44:46;;;;;;;40.42;22.48;;;9.00;99.90;;;;;;4981607;28;20041;-72
2022/11/06 16:47:13;;;;;;;49.70;32.10;;;9.00;99.90;;;;;;4981900;28;20035;-74
2022/11/06 16:49:44;;;;;;;24.20;16.75;;;9.00;99.90;;;;;;4981519;28;20094;-71
2022/11/06 16:52:19;;;;;;;22.42;14.07;;;9.00;99.90;;;;;;4980439;28;20035;-72
2022/11/06 16:54:55;;;;;;;13.20;9.27;;;9.10;99.90;;;;;;4964443;28;20038;-73
2022/11/06 16:57:25;;;;;;;9.88;7.78;;;9.00;99.90;;;;;;4983184;28;20023;-73
2022/11/06 17:00:22;;;;;;;9.38;6.30;;;9.10;99.90;;;;;;4981513;28;20031;-70
2022/11/06 17:02:52;;;;;;;10.43;6.90;;;9.10;99.90;;;;;;4983571;28;20332;-73
2022/11/06 17:05:23;;;;;;;20.92;14.23;;;9.10;99.90;;;;;;4985567;28;20039;-73
2022/11/06 17:08:16;;;;;;;10.05;7.57;;;9.10;99.90;;;;;;4985834;28;20030;-73
2022/11/06 17:10:47;;;;;;;8.20;5.35;;;9.20;99.90;;;;;;4985642;28;20031;-73
2022/11/06 17:13:17;;;;;;;8.93;6.13;;;9.10;99.90;;;;;;4984315;28;20038;-75
2022/11/06 17:15:48;;;;;;;16.60;10.25;;;9.20;99.90;;;;;;4985391;28;20027;-72
2022/11/06 17:18:18;;;;;;;8.65;6.03;;;9.20;99.90;;;;;;4969118;28;20034;-72
2022/11/06 17:21:05;;;;;;;14.98;8.93;;;9.20;99.90;;;;;;4985909;28;20341;-72
2022/11/06 17:23:32;;;;;;;38.25;21.88;;;9.20;99.90;;;;;;4985013;28;20502;-75
2022/11/06 17:26:01;;;;;;;10.52;6.70;;;9.20;99.90;;;;;;4985400;28;20037;-73
2022/11/06 17:28:27;;;;;;;8.40;5.40;;;9.20;99.90;;;;;;4985502;28;20019;-72
2022/11/06 17:30:54;;;;;;;9.88;6.15;;;9.20;99.90;;;;;;4985312;28;20023;-74
2022/11/06 17:33:19;;;;;;;59.30;31.70;;;9.20;99.90;;;;;;4968372;28;20027;-77
2022/11/06 17:35:48;;;;;;;28.38;16.33;;;9.20;99.90;;;;;;4983806;28;20023;-73
2022/11/06 17:38:14;;;;;;;;;;;9.30;99.90;;;;;;4985763;28;20201;-73
2022/11/06 17:40:41;;;;;;;11.02;7.20;;;9.30;99.90;;;;;;4984445;28;19984;-71
2022/11/06 17:43:07;;;;;;;9.32;5.03;;;9.30;99.90;;;;;;4985309;28;20069;-73
2022/11/06 17:45:34;;;;;;;7.53;5.07;;;9.30;99.90;;;;;;4985206;28;20027;-73
2022/11/06 17:48:02;;;;;;;8.00;4.75;;;9.30;99.90;;;;;;4985329;28;20095;-72
2022/11/06 17:50:28;;;;;;;8.85;5.30;;;9.30;99.90;;;;;;4980698;28;20117;-73
2022/11/06 17:52:54;;;;;;;10.55;6.45;;;9.40;99.90;;;;;;4995310;28;20190;-73
2022/11/06 17:55:19;;;;;;;8.30;5.30;;;9.40;99.90;;;;;;4992536;28;20105;-72
2022/11/06 17:57:48;;;;;;;9.20;5.47;;;9.30;99.90;;;;;;4969940;28;20066;-73
2022/11/06 18:00:14;;;;;;;9.88;5.90;;;9.30;99.90;;;;;;4982580;28;20022;-76
2022/11/06 18:02:40;;;;;;;9.38;6.22;;;9.30;99.90;;;;;;4963489;29;20222;-72
2022/11/06 18:05:06;;;;;;;8.10;5.47;;;9.30;99.90;;;;;;4965460;29;20042;-73
2022/11/06 18:07:32;;;;;;;7.90;5.68;;;9.30;99.90;;;;;;4964596;28;20043;-73
2022/11/06 18:09:57;;;;;;;8.48;5.25;;;9.30;99.90;;;;;;4980262;28;20368;-74
2022/11/06 18:12:26;;;;;;;30.05;21.88;;;9.30;99.90;;;;;;4965469;28;20035;-75
2022/11/06 18:14:54;;;;;;;10.18;6.97;;;9.20;99.90;;;;;;4979896;28;20106;-75
2022/11/06 18:17:20;;;;;;;7.82;5.53;;;9.20;99.90;;;;;;4965266;29;20027;-74
2022/11/06 18:19:46;;;;;;;7.80;5.30;;;9.20;99.90;;;;;;4965017;29;20055;-73
2022/11/06 18:22:11;;;;;;;6.45;4.68;;;9.10;99.90;;;;;;4965442;28;20035;-73
2022/11/06 18:24:37;;;;;;;9.30;5.93;;;9.10;99.90;;;;;;4965128;29;20028;-73
2022/11/06 18:27:03;;;;;;;9.30;4.93;;;9.00;99.90;;;;;;4965089;29;20023;-72
2022/11/06 18:29:29;;;;;;;9.23;5.80;;;9.10;99.90;;;;;;4965295;29;20088;-73
2022/11/06 18:31:55;;;;;;;8.52;5.80;;;9.10;99.90;;;;;;4965230;28;20042;-72
2022/11/06 18:34:23;;;;;;;7.57;5.05;;;9.10;99.90;;;;;;4963710;29;20114;-72
2022/11/06 18:36:50;;;;;;;8.50;5.13;;;9.10;99.90;;;;;;4963566;28;20317;-71
2022/11/06 18:39:16;;;;;;;8.98;5.28;;;9.10;99.90;;;;;;4964886;28;20039;-71
2022/11/06 18:41:41;;;;;;;8.10;5.55;;;9.10;99.90;;;;;;4964444;28;20321;-73
2022/11/06 18:44:07;;;;;;;8.07;5.38;;;9.10;99.90;;;;;;4964928;29;20046;-73
2022/11/06 18:46:34;;;;;;;9.85;5.88;;;9.10;99.90;;;;;;4964605;29;20041;-73
2022/11/06 18:49:00;;;;;;;7.57;4.70;;;9.10;99.90;;;;;;4964766;28;20047;-74
2022/11/06 18:51:29;;;;;;;8.38;4.80;;;9.10;99.90;;;;;;4959757;28;20102;-74
2022/11/06 18:53:57;;;;;;;7.95;4.72;;;9.20;99.90;;;;;;4958184;28;20028;-72
2022/11/06 18:56:23;;;;;;;9.27;5.97;;;9.30;99.90;;;;;;4964381;28;20038;-77
2022/11/06 18:58:49;;;;;;;7.20;5.03;;;9.30;99.90;;;;;;4963898;28;20031;-74
2022/11/06 19:01:19;;;;;;;6.10;4.10;;;9.30;99.90;;;;;;4964307;28;20329;-75
2022/11/06 19:03:46;;;;;;;6.30;4.57;;;9.30;99.90;;;;;;4982472;28;20229;-72
2022/11/06 19:06:15;;;;;;;7.30;4.97;;;9.40;99.90;;;;;;4983600;28;20034;-73
2022/11/06 19:08:42;;;;;;;8.00;5.00;;;9.40;99.90;;;;;;4982794;28;20031;-73
2022/11/06 19:11:08;;;;;;;7.80;4.70;;;9.40;99.90;;;;;;4983525;28;20046;-76
2022/11/06 19:13:35;;;;;;;15.02;9.23;;;9.50;99.90;;;;;;4983017;28;20051;-72
2022/11/06 19:16:01;;;;;;;6.70;4.88;;;9.50;99.90;;;;;;4983796;28;20034;-74
2022/11/06 19:18:29;;;;;;;10.05;7.60;;;9.50;99.90;;;;;;4966547;28;20026;-73
2022/11/06 19:20:54;;;;;;;11.85;8.07;;;9.60;99.90;;;;;;4981765;28;20041;-73
2022/11/06 19:23:29;;;;;;;5.72;4.10;;;9.60;99.90;;;;;;4983410;28;20232;-72
2022/11/06 19:25:55;;;;;;;6.82;3.45;;;9.70;99.90;;;;;;4965454;28;20042;-72
2022/11/06 19:28:21;;;;;;;4.65;3.05;;;9.80;99.90;;;;;;4981656;28;20376;-74